Time;durP1;ratioP1;P1;durP2;ratioP2;P2;SDS_P1;SDS_P2;PMS_P1;PMS_P2;Temp;Humidity;BMP_temperature;BMP_pressure;BME280_temperature;BME280_humidity;BME280_pressure;Samples;Min_cycle;Max_cycle;Signal;HPM_P1;HPM_P2
2021/12/19 00:00:23;;;;;;;;;47.50;33.50;;;;;12.58;72.75;103163.09;5063131;28;61706;-76
2021/12/19 00:10:55;;;;;;;;;36.50;31.00;;;;;12.55;73.38;103147.06;5062865;28;61799;-76
2021/12/19 00:13:24;;;;;;;;;35.00;28.50;;;;;12.58;73.59;103142.03;5063160;28;61760;-76
2021/12/19 00:15:49;;;;;;;;;54.75;41.25;;;;;12.59;72.89;103135.94;5060345;28;63884;-76
2021/12/19 00:18:14;;;;;;;;;44.00;31.50;;;;;12.57;72.77;103132.28;5062841;28;61882;-76
2021/12/19 00:20:40;;;;;;;;;51.00;35.25;;;;;12.58;73.28;103132.41;5062538;28;62285;-77
2021/12/19 00:23:05;;;;;;;;;44.75;37.25;;;;;12.55;73.03;103133.88;5063174;28;61731;-76
2021/12/19 00:25:31;;;;;;;;;43.75;31.00;;;;;12.57;72.92;103129.66;5061695;28;61803;-76
2021/12/19 00:27:56;;;;;;;;;38.75;28.50;;;;;12.50;73.18;103123.00;5062588;28;61932;-76
2021/12/19 00:30:22;;;;;;;;;45.50;30.25;;;;;12.54;73.16;103125.06;5062122;28;61946;-76
2021/12/19 00:32:47;;;;;;;;;41.25;29.00;;;;;12.57;72.91;103120.00;5061105;28;61794;-76
2021/12/19 00:35:12;;;;;;;;;51.00;32.25;;;;;12.59;72.68;103114.88;5062146;28;62833;-77
2021/12/19 00:37:38;;;;;;;;;39.25;22.50;;;;;12.59;73.04;103118.41;5060932;28;62062;-76
2021/12/19 00:40:04;;;;;;;;;35.25;25.00;;;;;12.61;73.07;103115.91;5095001;27;62003;-76
2021/12/19 00:42:34;;;;;;;;;46.00;33.25;;;;;12.59;72.94;103110.50;5061046;28;61912;-76
2021/12/19 00:45:12;;;;;;;;;37.75;31.25;;;;;12.58;73.22;103116.59;5060064;28;63476;-76
2021/12/19 00:47:38;;;;;;;;;38.25;30.25;;;;;12.58;73.29;103113.97;5062328;28;61976;-76
2021/12/19 00:50:04;;;;;;;;;36.25;32.25;;;;;12.60;73.10;103114.09;5060814;28;62541;-76
2021/12/19 00:52:29;;;;;;;;;45.25;31.25;;;;;12.49;72.91;103102.75;5062260;28;62018;-76
2021/12/19 00:54:54;;;;;;;;;50.75;31.75;;;;;12.51;73.39;103105.47;5061320;28;61920;-76
2021/12/19 00:57:20;;;;;;;;;44.75;35.25;;;;;12.52;73.42;103095.06;5064515;28;61771;-76
2021/12/19 00:59:45;;;;;;;;;38.75;27.25;;;;;12.55;73.54;103097.00;5080682;28;61855;-76
2021/12/19 01:02:11;;;;;;;;;34.50;30.00;;;;;12.56;72.86;103090.94;5082526;28;62029;-76
2021/12/19 01:04:36;;;;;;;;;36.75;28.25;;;;;12.52;72.94;103096.78;5080425;28;63713;-76
2021/12/19 01:07:02;;;;;;;;;43.25;30.00;;;;;12.48;73.42;103099.19;5082327;28;62004;-76
2021/12/19 01:09:28;;;;;;;;;36.00;25.50;;;;;12.45;73.70;103098.97;5080997;28;62450;-76
2021/12/19 01:11:53;;;;;;;;;40.00;27.75;;;;;12.44;73.59;103098.84;5082289;27;61666;-76
2021/12/19 01:14:19;;;;;;;;;34.00;21.00;;;;;12.38;73.56;103096.69;5079979;28;63702;-76
2021/12/19 01:16:44;;;;;;;;;36.25;29.50;;;;;12.40;73.81;103097.72;5080326;28;61940;-76
2021/12/19 01:19:10;;;;;;;;;36.50;29.25;;;;;12.41;73.61;103093.38;5082339;28;61945;-76
2021/12/19 01:21:35;;;;;;;;;33.25;25.25;;;;;12.45;74.01;103100.69;5082428;28;61771;-76
2021/12/19 01:24:01;;;;;;;;;36.00;23.00;;;;;12.43;73.69;103094.38;5081237;28;61871;-76
2021/12/19 01:26:26;;;;;;;;;29.00;24.25;;;;;12.48;73.94;103099.19;5081750;28;61755;-76
2021/12/19 01:28:52;;;;;;;;;37.75;28.75;;;;;12.47;73.57;103093.81;5081696;28;61888;-76
2021/12/19 01:31:17;;;;;;;;;31.25;21.50;;;;;12.42;73.58;103092.53;5081915;28;61965;-76
2021/12/19 01:33:43;;;;;;;;;28.75;22.50;;;;;12.37;74.17;103094.84;5081532;27;61828;-76
2021/12/19 01:36:08;;;;;;;;;33.25;29.00;;;;;12.39;73.77;103094.97;5080326;28;61903;-76
2021/12/19 01:38:34;;;;;;;;;32.25;22.75;;;;;12.36;74.19;103094.72;5082014;28;61860;-76
2021/12/19 01:41:01;;;;;;;;;31.75;25.50;;;;;12.34;73.96;103102.53;5081126;28;62061;-76
2021/12/19 01:43:27;;;;;;;;;35.25;26.25;;;;;12.40;74.40;103096.78;5080652;28;62684;-76
2021/12/19 01:45:54;;;;;;;;;30.00;24.25;;;;;12.40;73.87;103092.44;5080308;28;61818;-76
2021/12/19 01:48:21;;;;;;;;;29.25;24.00;;;;;12.40;74.07;103096.78;5081919;28;61705;-76
2021/12/19 01:50:47;;;;;;;;;34.00;26.00;;;;;12.36;73.97;103093.03;5081783;28;62131;-76
2021/12/19 01:53:14;;;;;;;;;18.25;15.00;;;;;12.32;74.01;103087.38;5080940;28;62181;-76
2021/12/19 01:55:43;;;;;;;;;37.25;18.25;;;;;12.35;74.04;103085.91;5081384;28;61999;-76
2021/12/19 01:58:09;;;;;;;;;36.25;22.00;;;;;12.34;74.17;103092.00;5069968;28;61749;-76
2021/12/19 02:00:39;;;;;;;;;35.75;25.25;;;;;12.37;74.36;103086.94;5061196;28;61838;-76
2021/12/19 02:03:08;;;;;;;;;27.25;21.25;;;;;12.36;74.34;103082.50;5060678;28;62554;-76
2021/12/19 02:05:35;;;;;;;;;29.25;22.50;;;;;12.35;74.36;103085.00;5061087;28;61759;-76
2021/12/19 02:08:01;;;;;;;;;27.50;21.75;;;;;12.40;74.41;103088.88;5060970;28;61794;-77
2021/12/19 02:10:29;;;;;;;;;28.75;26.25;;;;;12.36;73.91;103077.22;5061457;28;61847;-76
2021/12/19 02:12:58;;;;;;;;;36.00;22.75;;;;;12.35;74.15;103080.63;5060041;28;64886;-76
2021/12/19 02:15:26;;;;;;;;;29.00;20.75;;;;;12.40;74.09;103078.34;5061075;28;61750;-76
2021/12/19 02:17:54;;;;;;;;;29.50;22.50;;;;;12.41;74.00;103067.03;5061092;28;61923;-76
2021/12/19 02:20:21;;;;;;;;;28.75;22.25;;;;;12.39;74.27;103068.63;5059672;28;61802;-77
2021/12/19 02:22:46;;;;;;;;;34.00;25.25;;;;;12.41;74.52;103070.56;5060278;28;62808;-76
2021/12/19 02:25:14;;;;;;;;;32.50;22.25;;;;;12.45;74.03;103067.34;5060498;28;61749;-76
2021/12/19 02:27:39;;;;;;;;;28.50;23.50;;;;;12.40;74.33;103063.47;5061047;28;61739;-76
2021/12/19 02:30:07;;;;;;;;;35.00;25.00;;;;;12.37;74.33;103065.88;5060672;28;61798;-76
2021/12/19 02:32:34;;;;;;;;;26.25;20.25;;;;;12.41;74.62;103064.38;5060220;28;61818;-76
2021/12/19 02:35:04;;;;;;;;;33.00;24.25;;;;;12.41;74.14;103059.13;5060841;28;61998;-76
2021/12/19 02:48:19;;;;;;;;;25.00;20.50;;;;;12.36;74.19;103053.53;5037969;28;61778;-76
2021/12/19 02:50:50;;;;;;;;;39.25;25.75;;;;;12.32;74.05;103046.19;5037835;28;62287;-76
2021/12/19 02:53:26;;;;;;;;;28.25;18.50;;;;;12.36;74.37;103048.25;5038648;28;62028;-76
2021/12/19 02:55:51;;;;;;;;;27.75;21.00;;;;;12.36;73.98;103044.69;5040581;28;61860;-76
2021/12/19 02:58:17;;;;;;;;;38.00;18.50;;;;;12.39;74.06;103048.47;5051748;28;61932;-76
2021/12/19 03:00:43;;;;;;;;;30.50;21.50;;;;;12.42;74.20;103037.22;5061372;28;61834;-76
2021/12/19 03:03:08;;;;;;;;;32.75;25.75;;;;;12.41;73.70;103043.31;5060844;28;62806;-76
2021/12/19 03:05:34;;;;;;;;;29.00;20.00;;;;;12.40;73.61;103044.09;5061484;28;61912;-76
2021/12/19 03:08:02;;;;;;;;;24.50;20.00;;;;;12.40;73.72;103033.56;5061329;28;61808;-76
2021/12/19 03:13:24;;;;;;;;;33.25;21.50;;;;;12.38;73.49;103029.91;5060600;28;62003;-76
2021/12/19 03:18:34;;;;;;;;;38.25;23.25;;;;;12.38;73.77;103028.22;5061137;28;61882;-76
2021/12/19 03:21:00;;;;;;;;;30.00;23.50;;;;;12.40;73.35;103018.72;5098244;27;61740;-76
2021/12/19 03:23:25;;;;;;;;;37.50;22.75;;;;;12.42;73.53;103018.78;5083113;28;61865;-76
2021/12/19 03:25:51;;;;;;;;;28.75;22.50;;;;;12.40;73.27;103016.06;5083754;28;61951;-76
2021/12/19 03:28:17;;;;;;;;;23.25;17.50;;;;;12.40;73.17;103021.34;5083800;28;61778;-76
2021/12/19 03:30:45;;;;;;;;;28.25;20.75;;;;;12.42;73.24;103022.34;5083843;27;61796;-76
2021/12/19 03:33:12;;;;;;;;;29.00;21.25;;;;;12.31;73.13;103023.28;5081909;28;64716;-77
2021/12/19 03:35:38;;;;;;;;;31.25;20.50;;;;;12.31;73.51;103031.19;5083845;27;61901;-76
2021/12/19 03:38:08;;;;;;;;;34.75;21.00;;;;;12.32;73.43;103030.41;5084033;28;62168;-76
2021/12/19 03:40:40;;;;;;;;;21.75;18.00;;;;;12.36;73.21;103034.13;5083584;28;61766;-76
2021/12/19 03:43:12;;;;;;;;;27.00;21.00;;;;;12.37;73.21;103031.63;5083274;28;61807;-76
2021/12/19 03:45:38;;;;;;;;;26.75;18.75;;;;;12.40;73.54;103029.25;5083624;28;62330;-76
2021/12/19 03:48:04;;;;;;;;;32.25;19.25;;;;;12.37;73.13;103026.38;5083677;28;62078;-76
2021/12/19 03:50:32;;;;;;;;;21.75;15.50;;;;;12.35;73.35;103027.06;5083499;28;62159;-76
2021/12/19 03:53:02;;;;;;;;;28.75;21.25;;;;;12.34;73.18;103028.78;5082962;28;61848;-76
2021/12/19 03:55:28;;;;;;;;;25.50;19.50;;;;;12.36;72.93;103027.19;5082937;27;61644;-76
2021/12/19 03:57:57;;;;;;;;;22.75;17.75;;;;;12.33;73.17;103024.31;5075823;27;61806;-76
2021/12/19 04:00:25;;;;;;;;;31.25;17.50;;;;;12.34;73.32;103031.41;5062995;28;61759;-76
2021/12/19 04:02:54;;;;;;;;;31.00;21.25;;;;;12.33;73.18;103023.41;5062526;28;62015;-76
2021/12/19 04:05:20;;;;;;;;;22.75;20.00;;;;;12.30;73.38;103021.47;5062004;28;61736;-76
2021/12/19 04:07:46;;;;;;;;;25.75;16.25;;;;;12.28;73.51;103020.44;5062966;28;62041;-76
2021/12/19 04:10:12;;;;;;;;;32.25;20.00;;;;;12.30;73.83;103020.53;5061727;28;61855;-76
2021/12/19 04:12:37;;;;;;;;;21.00;16.00;;;;;12.32;73.63;103021.56;5061917;28;61959;-76
2021/12/19 04:15:04;;;;;;;;;35.00;24.00;;;;;12.33;73.62;103015.50;5062883;28;61768;-76
2021/12/19 04:17:30;;;;;;;;;22.50;20.25;;;;;12.37;73.60;103012.28;5061017;28;62662;-76
2021/12/19 04:19:56;;;;;;;;;29.75;21.50;;;;;12.30;73.50;103012.63;5061490;28;61864;-76
2021/12/19 04:22:21;;;;;;;;;31.50;19.75;;;;;12.33;74.07;103007.59;5062212;28;61838;-76
2021/12/19 04:24:47;;;;;;;;;26.50;20.75;;;;;12.20;73.55;103001.44;5061109;28;61929;-76
2021/12/19 04:27:13;;;;;;;;;26.50;16.00;;;;;12.26;73.94;103003.59;5062406;28;61910;-76
2021/12/19 04:29:38;;;;;;;;;18.50;13.50;;;;;12.27;73.28;103006.38;5062738;28;62176;-76
2021/12/19 04:32:06;;;;;;;;;38.50;23.00;;;;;12.24;74.17;103008.75;5061660;28;61921;-76
2021/12/19 04:34:32;;;;;;;;;22.75;15.75;;;;;12.26;74.41;103008.88;5060883;28;61703;-76
2021/12/19 04:36:59;;;;;;;;;29.75;20.00;;;;;12.24;74.19;103000.84;5062700;28;61780;-76
2021/12/19 04:39:40;;;;;;;;;29.50;16.75;;;;;12.22;74.42;102993.66;5060835;28;61926;-76
2021/12/19 04:53:08;;;;;;;;;17.50;16.75;;;;;12.31;74.66;102980.22;5061233;28;61658;-76
2021/12/19 05:00:53;;;;;;;;;18.75;16.00;;;;;12.36;74.80;102981.47;5082336;27;61800;-76
2021/12/19 05:06:05;;;;;;;;;19.50;13.00;;;;;12.32;74.41;102982.03;5082638;27;61796;-76
2021/12/19 05:16:32;;;;;;;;;15.25;7.50;;;;;12.30;74.26;102971.44;5080967;28;62085;-76
2021/12/19 05:19:04;;;;;;;;;12.00;8.00;;;;;12.31;74.47;102974.97;5080817;28;62199;-76
2021/12/19 05:21:30;;;;;;;;;17.00;12.00;;;;;12.30;74.32;102974.06;5082320;28;61976;-76
2021/12/19 05:26:24;;;;;;;;;23.25;14.75;;;;;12.21;74.71;102974.31;5081872;28;61762;-76
2021/12/19 05:28:52;;;;;;;;;24.00;11.00;;;;;12.28;74.22;102973.03;5081987;28;62172;-76
2021/12/19 05:31:18;;;;;;;;;16.75;11.00;;;;;12.30;74.27;102968.78;5081697;28;61850;-76
2021/12/19 05:33:45;;;;;;;;;14.50;12.50;;;;;12.30;73.69;102962.59;5079789;28;64063;-76
2021/12/19 05:45:11;;;;;;;;;16.00;12.25;;;;;12.34;74.17;102969.91;5081139;28;61772;-76
2021/12/19 05:47:00;;;;;;;;;11.25;10.75;;;;;12.34;73.55;102970.84;5081280;28;62025;-76
2021/12/19 05:49:26;;;;;;;;;13.75;8.75;;;;;12.27;73.61;102964.22;5080154;28;62046;-76
2021/12/19 05:51:51;;;;;;;;;17.75;8.50;;;;;12.23;73.57;102959.53;5081517;28;61786;-76
2021/12/19 05:54:16;;;;;;;;;10.50;8.75;;;;;12.21;73.83;102963.78;5079660;28;62405;-76
2021/12/19 05:56:44;;;;;;;;;13.00;8.50;;;;;12.22;73.76;102957.69;5081247;28;61945;-76
2021/12/19 05:59:10;;;;;;;;;11.75;10.50;;;;;12.21;73.36;102962.84;5081235;27;61766;-76
2021/12/19 06:01:38;;;;;;;;;14.00;10.25;;;;;12.20;73.54;102955.75;5081740;27;61746;-76
2021/12/19 06:04:04;;;;;;;;;13.75;7.00;;;;;12.14;73.20;102958.84;5080768;27;62047;-76
2021/12/19 06:06:29;;;;;;;;;9.75;8.00;;;;;12.08;73.69;102963.66;5079821;28;61841;-76
2021/12/19 06:08:55;;;;;;;;;11.25;8.50;;;;;12.06;73.32;102963.56;5081356;28;61769;-76
2021/12/19 06:11:20;;;;;;;;;8.50;7.00;;;;;12.04;73.59;102961.63;5081544;28;61789;-76
2021/12/19 06:13:46;;;;;;;;;7.75;6.75;;;;;12.01;73.16;102961.38;5080793;28;62912;-76
2021/12/19 06:16:11;;;;;;;;;10.50;8.00;;;;;12.00;73.60;102967.47;5079810;28;62010;-76
2021/12/19 06:18:37;;;;;;;;;11.00;7.50;;;;;11.93;73.91;102959.91;5081288;27;62056;-76
2021/12/19 06:21:03;;;;;;;;;17.25;10.50;;;;;11.91;73.71;102949.28;5080015;28;61841;-76
2021/12/19 06:23:29;;;;;;;;;7.50;7.50;;;;;11.92;73.96;102952.81;5080751;27;62839;-76
2021/12/19 06:25:54;;;;;;;;;8.75;8.50;;;;;11.96;73.60;102947.91;5080898;28;62159;-76
2021/12/19 06:28:21;;;;;;;;;15.00;8.75;;;;;11.96;73.59;102952.25;5081503;28;62693;-76
2021/12/19 06:30:47;;;;;;;;;10.00;7.50;;;;;11.95;73.75;102950.41;5084651;28;61881;-76
2021/12/19 06:33:13;;;;;;;;;10.25;7.25;;;;;11.96;73.37;102954.88;5084462;27;61662;-76
2021/12/19 06:35:38;;;;;;;;;10.00;8.00;;;;;11.96;73.43;102953.16;5084600;28;61951;-76
2021/12/19 06:38:04;;;;;;;;;10.00;9.00;;;;;11.98;73.72;102955.91;5084458;28;62692;-76
2021/12/19 06:40:30;;;;;;;;;7.00;6.75;;;;;11.97;73.26;102952.34;5084823;27;61921;-76
2021/12/19 06:42:56;;;;;;;;;12.25;7.75;;;;;11.89;73.37;102943.00;5082737;28;63721;-76
2021/12/19 06:45:22;;;;;;;;;9.25;6.75;;;;;11.88;73.81;102943.78;5084952;28;61949;-76
2021/12/19 06:47:48;;;;;;;;;13.00;8.00;;;;;11.91;73.44;102943.09;5084709;28;61988;-76
2021/12/19 06:50:16;;;;;;;;;11.00;9.00;;;;;11.90;73.27;102952.72;5084680;28;62042;-76
2021/12/19 06:52:43;;;;;;;;;7.25;5.75;;;;;11.84;73.48;102945.22;5083918;27;61775;-76
2021/12/19 06:55:11;;;;;;;;;11.00;6.75;;;;;11.87;73.37;102956.00;5084041;28;61949;-76
2021/12/19 06:57:37;;;;;;;;;6.50;5.75;;;;;11.80;73.49;102952.78;5079836;28;61761;-76
2021/12/19 07:00:09;;;;;;;;;8.00;6.50;;;;;11.83;73.82;102956.56;5063933;28;62172;-76
2021/12/19 07:02:35;;;;;;;;;12.50;7.00;;;;;11.80;73.83;102944.88;5063000;28;62832;-76
2021/12/19 07:05:00;;;;;;;;;9.75;5.75;;;;;11.82;73.34;102953.81;5062407;28;61953;-76
2021/12/19 07:07:26;;;;;;;;;11.00;7.75;;;;;11.79;73.34;102959.78;5063921;28;62142;-76
2021/12/19 07:09:52;;;;;;;;;6.75;6.00;;;;;11.81;73.77;102959.91;5062608;28;62146;-76
2021/12/19 07:12:18;;;;;;;;;9.25;6.50;;;;;11.84;73.41;102963.66;5061968;28;63533;-76
2021/12/19 07:14:44;;;;;;;;;6.25;6.25;;;;;11.86;73.28;102959.41;5062085;28;61920;-76
2021/12/19 07:17:10;;;;;;;;;7.25;6.00;;;;;11.84;73.18;102958.38;5063644;28;61813;-76
2021/12/19 07:19:36;;;;;;;;;8.75;6.00;;;;;11.82;73.06;102956.44;5064312;28;61719;-76
2021/12/19 07:22:02;;;;;;;;;10.50;6.00;;;;;11.82;73.03;102954.72;5063130;28;61720;-76
2021/12/19 07:24:27;;;;;;;;;12.25;8.00;;;;;11.86;73.11;102955.88;5062590;28;61860;-76
2021/12/19 07:26:52;;;;;;;;;10.50;6.50;;;;;11.86;72.79;102956.78;5063585;28;62001;-76
2021/12/19 07:29:18;;;;;;;;;8.75;6.25;;;;;11.86;73.22;102953.25;5064020;28;61897;-76
2021/12/19 07:31:44;;;;;;;;;8.00;7.00;;;;;11.84;73.12;102949.59;5062596;28;61843;-76
2021/12/19 07:34:10;;;;;;;;;9.75;6.50;;;;;11.85;73.31;102952.34;5063426;28;61751;-76
2021/12/19 07:36:42;;;;;;;;;10.00;6.50;;;;;11.86;73.17;102953.25;5063682;28;61974;-76
2021/12/19 07:39:20;;;;;;;;;12.50;8.75;;;;;11.84;72.87;102949.59;5062440;28;61723;-76
2021/12/19 07:41:45;;;;;;;;;15.00;9.75;;;;;11.85;73.69;102941.81;5063285;28;62198;-76
2021/12/19 07:44:11;;;;;;;;;7.00;7.00;;;;;11.91;73.27;102938.75;5063137;28;61790;-76
2021/12/19 07:46:36;;;;;;;;;15.25;10.50;;;;;11.92;73.42;102937.94;5063112;28;61926;-76
2021/12/19 07:49:02;;;;;;;;;16.00;11.75;;;;;11.88;73.23;102938.50;5063598;28;61860;-76
2021/12/19 07:51:27;;;;;;;;;12.00;9.50;;;;;11.85;73.17;102941.81;5062674;28;61821;-76
2021/12/19 07:53:53;;;;;;;;;11.00;8.00;;;;;11.82;73.78;102941.56;5061767;28;61903;-76
2021/12/19 07:56:18;;;;;;;;;14.25;10.50;;;;;11.85;73.63;102951.44;5062589;28;61786;-76
2021/12/19 07:58:43;;;;;;;;;11.00;10.25;;;;;11.88;73.80;102951.69;5075925;28;62288;-76
2021/12/19 08:01:09;;;;;;;;;15.25;14.75;;;;;11.78;73.86;102949.13;5082361;27;62725;-76
2021/12/19 08:03:34;;;;;;;;;17.00;11.00;;;;;11.70;74.16;102959.09;5081885;28;61771;-76
2021/12/19 08:06:00;;;;;;;;;9.50;9.00;;;;;11.59;73.84;102953.03;5083140;27;61718;-76
2021/12/19 08:08:27;;;;;;;;;13.00;11.25;;;;;11.46;74.05;102948.56;5083107;28;62359;-76
2021/12/19 08:13:39;;;;;;;;;14.75;10.25;;;;;11.53;74.35;102947.31;5083267;28;61794;-76
2021/12/19 08:16:04;;;;;;;;;19.25;11.75;;;;;11.52;73.98;102947.19;5082701;27;61785;-76
2021/12/19 08:18:30;;;;;;;;;14.50;12.75;;;;;11.60;73.99;102953.94;5082720;27;61881;-76
2021/12/19 08:20:55;;;;;;;;;16.00;12.50;;;;;11.54;73.87;102950.84;5081965;28;62975;-76
2021/12/19 08:23:21;;;;;;;;;15.00;11.75;;;;;11.59;74.25;102945.13;5082434;27;62204;-76
2021/12/19 08:25:46;;;;;;;;;14.25;13.25;;;;;11.63;73.63;102952.47;5083179;27;61953;-76
2021/12/19 08:28:12;;;;;;;;;19.25;15.00;;;;;11.68;73.61;102954.53;5083184;27;61910;-76
2021/12/19 08:30:37;;;;;;;;;19.00;17.25;;;;;11.57;73.49;102944.09;5082114;28;61892;-76
2021/12/19 08:33:03;;;;;;;;;26.25;21.75;;;;;11.59;73.58;102946.81;5081904;28;62065;-77
2021/12/19 08:35:28;;;;;;;;;20.75;15.25;;;;;11.62;74.01;102945.34;5082655;27;62373;-76
2021/12/19 08:37:54;;;;;;;;;23.25;15.75;;;;;11.72;74.40;102946.03;5083979;27;61874;-74
2021/12/19 08:40:22;;;;;;;;;23.75;17.00;;;;;11.78;73.49;102941.22;5082939;27;61764;-75
2021/12/19 08:42:47;;;;;;;;;23.00;17.00;;;;;11.83;73.59;102945.13;5083534;27;61769;-74
2021/12/19 08:45:15;;;;;;;;;19.75;14.75;;;;;11.80;73.92;102944.88;5083328;27;61853;-74
2021/12/19 08:47:40;;;;;;;;;21.75;17.50;;;;;11.83;74.02;102946.03;5083742;28;61790;-74
2021/12/19 08:50:08;;;;;;;;;25.00;15.50;;;;;11.90;73.33;102947.44;5081232;28;64881;-76
2021/12/19 08:52:34;;;;;;;;;18.00;16.25;;;;;11.95;73.42;102946.06;5079949;28;61971;-76
2021/12/19 08:55:15;;;;;;;;;16.25;12.00;;;;;12.00;73.54;102947.31;5081306;28;62179;-76
2021/12/19 08:57:42;;;;;;;;;18.25;15.75;;;;;12.03;73.79;102944.00;5082936;27;61751;-77
2021/12/19 09:00:11;;;;;;;;;25.00;17.50;;;;;12.05;73.28;102952.91;5080936;28;63555;-77
2021/12/19 09:02:38;;;;;;;;;21.00;16.75;;;;;12.07;73.58;102948.69;5081864;28;61853;-76
2021/12/19 09:05:04;;;;;;;;;15.75;11.25;;;;;12.07;73.33;102946.06;5081417;28;61901;-76
2021/12/19 09:07:30;;;;;;;;;18.00;11.00;;;;;12.01;72.78;102938.59;5080544;28;62240;-76
2021/12/19 09:09:55;;;;;;;;;16.00;12.75;;;;;12.03;73.21;102950.16;5081195;27;61821;-76
2021/12/19 09:12:21;;;;;;;;;13.00;13.00;;;;;11.95;72.75;102945.16;5082151;27;62123;-76
2021/12/19 09:14:46;;;;;;;;;19.25;13.50;;;;;12.01;73.66;102962.28;5084197;27;61881;-76
2021/12/19 09:17:11;;;;;;;;;23.25;14.25;;;;;11.98;73.19;102956.81;5082401;27;61887;-76
2021/12/19 09:19:37;;;;;;;;;16.50;11.75;;;;;11.97;74.10;102952.34;5081509;28;61903;-76
2021/12/19 09:22:03;;;;;;;;;22.50;14.75;;;;;12.02;73.67;102960.59;5080922;28;62097;-75
2021/12/19 09:24:29;;;;;;;;;23.00;17.50;;;;;11.98;73.79;102953.28;5083102;27;61956;-76
2021/12/19 09:26:54;;;;;;;;;22.75;18.25;;;;;11.88;73.59;102954.31;5083109;27;61869;-76
2021/12/19 09:29:20;;;;;;;;;17.25;13.00;;;;;11.91;74.49;102943.09;5080871;28;63879;-87
2021/12/19 09:31:45;;;;;;;;;22.25;17.00;;;;;12.00;74.26;102951.69;5081542;27;62904;-84
2021/12/19 09:34:10;;;;;;;;;27.25;16.25;;;;;11.99;74.23;102942.84;5080952;28;62804;-84
2021/12/19 09:36:36;;;;;;;;;18.50;14.50;;;;;11.98;73.88;102946.28;5082114;27;61954;-83
2021/12/19 09:39:03;;;;;;;;;14.50;13.50;;;;;12.03;73.94;102955.44;5081626;27;62407;-82
2021/12/19 09:41:33;;;;;;;;;18.00;13.00;;;;;12.00;74.13;102959.56;5081771;27;61876;-83
2021/12/19 09:44:04;;;;;;;;;22.50;16.25;;;;;12.07;74.02;102959.22;5079968;28;61973;-81
2021/12/19 09:46:34;;;;;;;;;18.00;15.00;;;;;12.10;74.50;102953.25;5080808;27;62306;-74
2021/12/19 09:49:00;;;;;;;;;20.25;15.75;;;;;12.13;73.67;102950.84;5080130;27;62652;-76
2021/12/19 09:51:25;;;;;;;;;16.50;12.75;;;;;12.11;74.02;102941.94;5080143;27;62094;-76
2021/12/19 09:53:51;;;;;;;;;19.50;14.25;;;;;12.16;73.70;102943.16;5079223;28;61904;-77
2021/12/19 09:56:17;;;;;;;;;22.25;16.75;;;;;12.20;73.30;102939.97;5080301;27;62113;-78
2021/12/19 09:58:42;;;;;;;;;22.25;17.50;;;;;12.27;73.03;102932.63;5077106;28;64646;-75
2021/12/19 10:01:11;;;;;;;;;22.00;16.75;;;;;12.34;72.94;102928.72;5080542;27;62025;-76
2021/12/19 10:03:37;;;;;;;;;26.50;21.25;;;;;12.32;72.59;102938.22;5079748;27;61895;-76
2021/12/19 10:06:20;;;;;;;;;31.50;24.50;;;;;12.41;72.85;102923.06;5079755;28;61947;-78
2021/12/19 10:08:52;;;;;;;;;32.50;25.75;;;;;12.42;72.96;102921.34;5095901;27;64494;-74
2021/12/19 10:11:35;;;;;;;;;36.75;30.50;;;;;12.48;73.00;102921.78;5080206;28;62187;-78
2021/12/19 10:14:01;;;;;;;;;34.50;26.25;;;;;12.48;72.17;102911.25;5078919;28;61700;-76
2021/12/19 10:16:29;;;;;;;;;26.25;20.50;;;;;12.53;72.33;102917.75;5081350;27;61884;-74
2021/12/19 10:18:58;;;;;;;;;31.50;26.75;;;;;12.57;72.60;102909.25;5081132;27;61876;-73
2021/12/19 10:21:24;;;;;;;;;34.50;25.75;;;;;12.60;72.18;102904.22;5080134;28;61924;-74
2021/12/19 10:23:50;;;;;;;;;27.00;22.50;;;;;12.61;71.29;102905.13;5081275;27;61750;-74
2021/12/19 10:26:15;;;;;;;;;31.50;21.00;;;;;12.56;71.11;102909.16;5081359;27;61936;-74
2021/12/19 10:28:54;;;;;;;;;27.00;17.25;;;;;12.40;71.29;102908.09;5081289;27;62588;-76
2021/12/19 10:31:21;;;;;;;;;25.75;17.25;;;;;12.43;71.41;102910.00;5079930;28;61792;-74
2021/12/19 10:33:48;;;;;;;;;25.75;21.75;;;;;12.56;71.77;102910.06;5081795;27;62568;-73
2021/12/19 10:36:14;;;;;;;;;23.50;20.75;;;;;12.46;70.56;102907.59;5079926;28;62759;-73
2021/12/19 10:38:44;;;;;;;;;24.25;22.25;;;;;12.44;70.66;102906.56;5080403;27;62643;-74
2021/12/19 10:41:14;;;;;;;;;36.00;22.50;;;;;12.45;70.93;102905.78;5080707;27;61742;-74
2021/12/19 10:46:38;;;;;;;;;29.50;21.25;;;;;12.68;70.55;102907.38;5079657;28;61778;-73
2021/12/19 10:49:19;;;;;;;;;29.75;24.25;;;;;12.62;70.23;102897.34;5093231;27;63538;-74
2021/12/19 10:51:49;;;;;;;;;32.00;21.75;;;;;12.46;69.36;102894.41;5079539;28;62482;-73
2021/12/19 10:54:15;;;;;;;;;35.75;24.25;;;;;12.43;70.10;102888.94;5080873;27;61803;-76
2021/12/19 10:56:41;;;;;;;;;26.75;19.50;;;;;12.48;70.07;102891.06;5080807;27;61843;-75
2021/12/19 10:59:10;;;;;;;;;25.00;19.00;;;;;12.71;70.35;102882.97;5072246;28;61870;-73
2021/12/19 11:01:35;;;;;;;;;25.00;20.50;;;;;12.81;69.82;102875.81;5059468;28;61787;-73
2021/12/19 11:04:19;;;;;;;;;23.00;17.75;;;;;12.88;68.97;102877.16;5043786;28;61879;-73
2021/12/19 11:06:48;;;;;;;;;21.50;18.50;;;;;12.85;69.40;102877.84;5051567;28;61969;-75
2021/12/19 11:09:20;;;;;;;;;28.00;23.50;;;;;12.79;69.01;102860.69;5038461;28;64860;-75
2021/12/19 11:11:50;;;;;;;;;28.25;22.00;;;;;12.78;68.71;102870.31;5045382;28;61717;-75
2021/12/19 11:14:19;;;;;;;;;47.50;33.25;;;;;12.80;69.07;102868.69;5052000;28;62008;-75
2021/12/19 11:16:46;;;;;;;;;31.00;26.00;;;;;12.80;69.56;102858.16;5059338;28;61886;-73
2021/12/19 11:19:12;;;;;;;;;29.75;24.25;;;;;12.72;68.83;102863.72;5064155;28;61819;-73
2021/12/19 11:21:38;;;;;;;;;32.50;23.00;;;;;12.77;69.18;102859.66;5054426;28;61807;-74
2021/12/19 11:24:10;;;;;;;;;31.75;24.75;;;;;12.86;69.77;102858.59;5054088;28;61965;-73
2021/12/19 11:26:37;;;;;;;;;27.00;27.00;;;;;13.00;68.97;102848.06;5071907;28;61968;-72
2021/12/19 11:29:05;;;;;;;;;31.50;27.50;;;;;13.00;69.53;102842.78;5073785;28;61714;-73
2021/12/19 11:31:32;;;;;;;;;28.25;20.50;;;;;13.12;68.83;102837.44;5064550;28;61787;-73
2021/12/19 11:34:08;;;;;;;;;37.25;23.75;;;;;13.21;69.00;102843.31;5056614;28;61919;-73
2021/12/19 11:36:41;;;;;;;;;35.25;28.00;;;;;13.19;68.37;102837.03;5051908;28;62135;-73
2021/12/19 11:39:08;;;;;;;;;29.75;22.00;;;;;13.21;68.95;102832.75;5052001;28;61893;-73
2021/12/19 11:41:35;;;;;;;;;28.50;22.50;;;;;13.30;68.95;102828.13;5053962;28;61944;-73
2021/12/19 11:44:06;;;;;;;;;30.25;24.00;;;;;13.36;68.18;102825.91;5037840;28;61737;-73
2021/12/19 11:46:53;;;;;;;;;31.75;23.50;;;;;13.39;68.31;102814.63;5060830;28;61843;-73
2021/12/19 11:49:23;;;;;;;;;33.50;22.00;;;;;13.44;68.18;102815.88;5045545;28;64791;-73
2021/12/19 11:52:09;;;;;;;;;29.00;24.75;;;;;13.39;67.96;102818.19;5045192;28;61864;-73
2021/12/19 11:54:34;;;;;;;;;38.00;24.00;;;;;13.35;68.20;102821.44;5053082;28;61741;-73
2021/12/19 11:57:09;;;;;;;;;26.25;23.25;;;;;13.24;68.08;102809.25;5054722;28;62165;-73
2021/12/19 11:59:37;;;;;;;;;25.00;21.50;;;;;13.21;69.12;102802.03;5076859;28;62851;-73
2021/12/19 12:02:41;;;;;;;;;22.75;21.75;;;;;13.30;68.64;102804.38;5083180;27;62124;-73
2021/12/19 12:05:15;;;;;;;;;27.25;19.00;;;;;13.25;68.30;102797.88;5018052;28;62300;-73
2021/12/19 12:08:06;;;;;;;;;24.00;23.50;;;;;13.22;68.28;102795.06;5001584;28;62498;-73
2021/12/19 12:10:50;;;;;;;;;27.75;20.25;;;;;13.16;68.96;102786.72;5019026;28;61999;-72
2021/12/19 12:13:31;;;;;;;;;33.50;30.75;;;;;13.24;69.14;102775.88;5020677;28;61910;-73
2021/12/19 12:18:43;;;;;;;;;29.50;21.00;;;;;13.25;69.56;102777.69;5020096;28;62093;-73
2021/12/19 12:21:18;;;;;;;;;30.00;24.50;;;;;13.25;69.78;102774.13;5020193;28;62719;-73
2021/12/19 12:23:52;;;;;;;;;30.25;22.25;;;;;13.21;69.35;102767.75;5020973;28;61994;-73